createdAt,value
2022-12-05T00:00:26.269Z,3.74
2022-12-05T00:05:30.150Z,3.91
2022-12-05T00:10:31.795Z,3.89
2022-12-05T00:15:41.180Z,4.02
2022-12-05T00:20:51.296Z,4.62
2022-12-05T00:25:52.865Z,4.28
2022-12-05T00:30:59.536Z,4.34
2022-12-05T00:36:06.496Z,4.07
2022-12-05T00:41:11.527Z,4.33
2022-12-05T00:46:16.937Z,4.19
2022-12-05T00:51:28.377Z,4.14
2022-12-05T00:56:31.041Z,4.18
2022-12-05T01:01:38.539Z,4.43
2022-12-05T01:06:41.099Z,4.10
2022-12-05T01:11:43.489Z,4.68
2022-12-05T01:16:47.485Z,4.56
2022-12-05T01:21:49.806Z,4.68
2022-12-05T01:26:52.302Z,4.53
2022-12-05T01:31:54.826Z,5.06
2022-12-05T01:36:56.562Z,4.79
2022-12-05T01:41:58.276Z,4.63
2022-12-05T01:46:59.913Z,4.29
2022-12-05T01:52:18.927Z,4.09
2022-12-05T01:57:20.658Z,4.03
2022-12-05T02:02:22.735Z,3.98
2022-12-05T02:07:24.776Z,4.05
2022-12-05T02:12:26.843Z,4.06
2022-12-05T02:17:54.114Z,4.13
2022-12-05T02:23:17.805Z,4.05
2022-12-05T02:28:44.482Z,4.15
2022-12-05T02:33:50.640Z,4.30
2022-12-05T02:39:12.658Z,4.23
2022-12-05T02:44:23.049Z,4.17
2022-12-05T02:49:30.482Z,4.17
2022-12-05T02:54:41.804Z,4.24
2022-12-05T02:59:43.444Z,4.33
2022-12-05T03:04:45.117Z,4.32
2022-12-05T03:09:59.394Z,4.25
2022-12-05T03:15:07.674Z,4.34
2022-12-05T03:20:15.315Z,4.32
2022-12-05T03:25:17.734Z,4.68
2022-12-05T03:30:22.666Z,4.79
2022-12-05T03:35:43.578Z,4.63
2022-12-05T03:40:54.581Z,5.09
2022-12-05T03:46:00.840Z,4.74
2022-12-05T03:51:06.518Z,4.80
2022-12-05T03:56:13.450Z,4.66
2022-12-05T04:01:18.425Z,4.68
2022-12-05T04:06:26.759Z,4.95
2022-12-05T04:11:33.209Z,4.79
2022-12-05T04:17:05.717Z,4.86
2022-12-05T04:22:07.486Z,4.89
2022-12-05T04:27:27.956Z,5.32
2022-12-05T04:32:32.584Z,5.58
2022-12-05T04:37:39.576Z,4.77
2022-12-05T04:42:43.170Z,4.77
2022-12-05T04:47:51.080Z,4.75
2022-12-05T04:52:57.032Z,4.77
2022-12-05T04:58:11.944Z,4.80
2022-12-05T05:03:24.872Z,4.81
2022-12-05T05:08:29.108Z,4.93
2022-12-05T05:13:30.685Z,4.85
2022-12-05T05:18:32.729Z,4.81
2022-12-05T05:23:34.586Z,5.13
2022-12-05T05:28:36.317Z,4.92
2022-12-05T05:33:38.654Z,4.84
2022-12-05T05:38:43.354Z,5.24
2022-12-05T05:43:45.899Z,5.03
2022-12-05T05:48:47.943Z,5.28
2022-12-05T05:53:49.802Z,5.14
2022-12-05T05:59:01.980Z,4.89
2022-12-05T06:04:03.799Z,5.34
2022-12-05T06:09:07.347Z,5.04
2022-12-05T06:14:09.620Z,5.02
2022-12-05T06:19:11.295Z,5.72
2022-12-05T06:24:12.983Z,5.57
2022-12-05T06:29:14.640Z,5.27
2022-12-05T06:34:16.440Z,5.10
2022-12-05T06:39:18.210Z,4.98
2022-12-05T06:44:21.704Z,5.02
2022-12-05T06:49:30.753Z,5.35
2022-12-05T06:54:34.499Z,5.09
2022-12-05T06:59:36.449Z,5.56
2022-12-05T07:04:38.075Z,5.69
2022-12-05T07:09:51.616Z,5.29
2022-12-05T07:14:53.306Z,5.23
2022-12-05T07:19:54.990Z,5.35
2022-12-05T07:24:56.725Z,5.29
2022-12-05T07:29:58.700Z,5.45
2022-12-05T07:35:00.605Z,5.36
2022-12-05T07:40:02.309Z,5.51
2022-12-05T07:45:04.515Z,5.50
2022-12-05T07:50:07.063Z,5.37
2022-12-05T07:55:09.121Z,5.74
2022-12-05T08:00:11.411Z,5.91
2022-12-05T08:05:15.979Z,5.54
2022-12-05T08:10:17.715Z,5.71
2022-12-05T08:15:19.310Z,5.92
2022-12-05T08:20:20.958Z,5.78
2022-12-05T08:25:22.617Z,5.85
2022-12-05T08:30:24.312Z,5.82
2022-12-05T08:35:26.286Z,5.64
2022-12-05T08:40:27.959Z,6.07
2022-12-05T08:45:29.618Z,5.84
2022-12-05T08:50:31.185Z,5.96
2022-12-05T08:55:34.940Z,6.13
2022-12-05T09:00:36.589Z,5.97
2022-12-05T09:05:38.812Z,5.68
2022-12-05T09:10:40.533Z,5.79
2022-12-05T09:15:42.289Z,5.77
2022-12-05T09:20:44.548Z,5.75
2022-12-05T09:25:58.109Z,5.76
2022-12-05T09:31:02.160Z,6.50
2022-12-05T09:36:33.323Z,6.23
2022-12-05T09:42:07.976Z,5.96
2022-12-05T09:47:36.473Z,5.87
2022-12-05T09:52:41.565Z,6.20
2022-12-05T09:57:51.750Z,5.75
2022-12-05T10:03:05.318Z,6.00
2022-12-05T10:08:26.482Z,6.14
2022-12-05T10:13:46.040Z,6.44
2022-12-05T10:18:53.702Z,5.89
2022-12-05T10:24:02.882Z,5.71
2022-12-05T10:29:14.928Z,5.58
2022-12-05T10:34:26.981Z,5.53
2022-12-05T10:39:28.695Z,5.52
2022-12-05T10:44:32.147Z,5.60
2022-12-05T10:49:34.513Z,5.39
2022-12-05T10:54:44.384Z,5.35
2022-12-05T10:59:47.645Z,5.53
2022-12-05T11:04:51.159Z,5.40
2022-12-05T11:09:54.534Z,5.52
2022-12-05T11:15:25.586Z,5.55
2022-12-05T11:20:27.341Z,5.61
2022-12-05T11:25:32.910Z,5.57
2022-12-05T11:30:34.720Z,5.59
2022-12-05T11:35:37.941Z,5.68
2022-12-05T11:41:04.387Z,5.67
2022-12-05T11:46:22.252Z,5.73
2022-12-05T11:52:04.100Z,5.95
2022-12-05T11:57:34.077Z,5.81
2022-12-05T12:03:03.024Z,5.71
2022-12-05T12:08:28.456Z,5.72
2022-12-05T12:13:36.035Z,5.72
2022-12-05T12:18:53.298Z,5.80
2022-12-05T12:24:19.094Z,5.80
2022-12-05T12:29:20.650Z,5.83
2022-12-05T12:34:46.226Z,5.85
2022-12-05T12:40:13.186Z,5.91
2022-12-05T12:45:46.084Z,5.97
2022-12-05T12:50:52.821Z,6.14
2022-12-05T12:56:06.605Z,6.19
2022-12-05T13:01:36.406Z,6.49
2022-12-05T13:06:49.575Z,6.34
2022-12-05T13:11:53.315Z,6.48
2022-12-05T13:16:58.187Z,6.49
2022-12-05T13:22:00.813Z,6.66
2022-12-05T13:27:06.939Z,6.69
2022-12-05T13:32:36.300Z,6.59
2022-12-05T13:38:05.275Z,6.57
2022-12-05T13:43:07.530Z,7.58
2022-12-05T13:48:26.450Z,6.73
2022-12-05T13:53:39.477Z,6.50
2022-12-05T13:58:43.915Z,6.58
2022-12-05T14:03:48.663Z,6.53
2022-12-05T14:08:52.686Z,6.52
2022-12-05T14:13:58.007Z,6.65
2022-12-05T14:19:33.893Z,6.75
2022-12-05T14:24:50.251Z,6.75
2022-12-05T14:30:16.183Z,6.69
2022-12-05T14:35:25.493Z,6.56
2022-12-05T14:40:40.727Z,6.77
2022-12-05T14:45:58.333Z,6.88
2022-12-05T14:51:02.913Z,6.66
2022-12-05T14:56:16.281Z,6.59
2022-12-05T15:01:28.748Z,6.66
2022-12-05T15:06:33.536Z,6.58
2022-12-05T15:11:37.972Z,6.50
2022-12-05T15:16:43.811Z,6.53
2022-12-05T15:21:56.783Z,6.58
2022-12-05T15:27:03.569Z,6.71
2022-12-05T15:32:11.330Z,6.65
2022-12-05T15:37:28.358Z,6.49
2022-12-05T15:42:35.767Z,6.51
2022-12-05T15:47:38.977Z,6.54
2022-12-05T15:52:53.927Z,6.60
2022-12-05T15:58:13.043Z,6.65
2022-12-05T16:03:38.794Z,6.60
2022-12-05T16:08:47.893Z,6.60
2022-12-05T16:13:58.418Z,6.61
2022-12-05T16:19:05.507Z,6.66
2022-12-05T16:24:30.276Z,6.62
2022-12-05T16:29:35.033Z,6.78
2022-12-05T16:34:36.803Z,6.96
2022-12-05T16:39:38.978Z,6.89
2022-12-05T16:44:46.387Z,6.80
2022-12-05T16:49:48.084Z,6.60
2022-12-05T16:54:52.212Z,6.65
2022-12-05T16:59:56.929Z,6.60
2022-12-05T17:05:03.135Z,6.60
2022-12-05T17:10:05.696Z,6.66
2022-12-05T17:15:15.255Z,6.54
2022-12-05T17:20:18.453Z,6.75
2022-12-05T17:25:33.768Z,6.94
2022-12-05T17:30:35.452Z,6.59
2022-12-05T17:35:37.846Z,6.46
2022-12-05T17:40:40.306Z,6.46
2022-12-05T17:45:43.271Z,6.63
2022-12-05T17:50:47.985Z,6.60
2022-12-05T17:55:49.735Z,6.60
2022-12-05T18:00:51.378Z,6.60
2022-12-05T18:05:53.019Z,6.66
2022-12-05T18:10:56.206Z,6.66
2022-12-05T18:15:58.252Z,6.64
2022-12-05T18:21:08.262Z,6.67
2022-12-05T18:26:10.640Z,6.66
2022-12-05T18:31:17.124Z,6.94
2022-12-05T18:36:21.070Z,6.74
2022-12-05T18:41:23.833Z,6.77
2022-12-05T18:46:25.540Z,6.73
2022-12-05T18:51:27.949Z,6.80
2022-12-05T18:56:34.723Z,6.96
2022-12-05T19:01:38.851Z,6.85
2022-12-05T19:06:43.285Z,6.86
2022-12-05T19:11:47.800Z,6.75
2022-12-05T19:16:58.008Z,6.75
2022-12-05T19:22:02.420Z,6.79
2022-12-05T19:27:04.235Z,6.71
2022-12-05T19:32:06.065Z,6.68
2022-12-05T19:37:07.833Z,6.68
2022-12-05T19:42:09.525Z,6.77
2022-12-05T19:47:11.272Z,6.78
2022-12-05T19:52:17.773Z,6.70
2022-12-05T19:57:19.846Z,6.47
2022-12-05T20:02:24.116Z,6.64
2022-12-05T20:07:25.859Z,6.64
2022-12-05T20:12:27.489Z,6.58
2022-12-05T20:17:29.133Z,6.68
2022-12-05T20:22:31.027Z,6.70
2022-12-05T20:27:34.111Z,6.65
2022-12-05T20:32:35.761Z,6.63
2022-12-05T20:37:37.647Z,6.68
2022-12-05T20:42:44.969Z,6.74
2022-12-05T20:47:48.278Z,6.74
2022-12-05T20:52:49.939Z,6.73
2022-12-05T20:57:53.699Z,6.66
2022-12-05T21:02:56.727Z,6.68
2022-12-05T21:07:58.472Z,6.66
2022-12-05T21:13:00.117Z,6.65
2022-12-05T21:18:02.093Z,6.66
2022-12-05T21:23:04.065Z,6.69
2022-12-05T21:28:05.746Z,6.68
2022-12-05T21:33:07.435Z,6.71
2022-12-05T21:38:09.085Z,6.70
2022-12-05T21:43:10.726Z,6.75
2022-12-05T21:48:12.374Z,6.77
2022-12-05T21:53:14.189Z,6.69
2022-12-05T21:58:15.909Z,6.66
2022-12-05T22:03:17.579Z,6.65
2022-12-05T22:08:19.324Z,6.67
2022-12-05T22:13:21.039Z,6.64
2022-12-05T22:18:22.973Z,6.72
2022-12-05T22:23:25.261Z,6.60
2022-12-05T22:28:28.254Z,6.68
2022-12-05T22:33:31.682Z,6.71
2022-12-05T22:38:39.095Z,6.69
2022-12-05T22:43:42.087Z,6.67
2022-12-05T22:48:44.479Z,6.74
2022-12-05T22:53:49.724Z,6.78
2022-12-05T22:58:59.826Z,6.70
2022-12-05T23:04:06.418Z,6.66
2022-12-05T23:09:10.104Z,6.66
2022-12-05T23:14:11.780Z,6.61
2022-12-05T23:19:13.410Z,6.57
2022-12-05T23:24:15.036Z,6.53
2022-12-05T23:29:16.649Z,6.44
2022-12-05T23:34:18.364Z,6.43
2022-12-05T23:39:20.169Z,6.37
2022-12-05T23:44:22.734Z,6.32
2022-12-05T23:49:24.368Z,6.29
2022-12-05T23:54:26.105Z,6.26
2022-12-05T23:59:27.765Z,6.28
